This is the latest recevied weather packets stored in our database for station/object MB7UCW-13. If no packets are shown the sender has not sent any weather packets the latest 10 day(s).
| Time | Temp. | Humidity | Pressure | Rain* | Wind** | Luminosity | Snow |
|---|---|---|---|---|---|---|---|
| 1777523402 | 8.89° C | 73% | 1024.4 hPa | 0 mm | - | 0 W/m² | - |
| 1777519802 | 8.89° C | 71% | 1024.5 hPa | 0 mm | - | 0 W/m² | - |
| 1777518923 | 9.44° C | 71% | 1024.6 hPa | 0 mm | - | 0 W/m² | - |
| 1777516202 | 9.44° C | 70% | 1025 hPa | 0 mm | - | 0 W/m² | - |
| 1777515302 | 9.44° C | 70% | 1025.1 hPa | 0 mm | - | 0 W/m² | - |
| 1777510802 | 9.44° C | 69% | 1025.3 hPa | 0 mm | - | 0 W/m² | - |
| 1777508102 | 9.44° C | 67% | 1025.7 hPa | 0 mm | - | 0 W/m² | - |
| 1777497302 | 11.67° C | 53% | 1026.5 hPa | 0 mm | - | 0 W/m² | - |
| 1777496402 | 11.67° C | 52% | 1026.4 hPa | 0 mm | - | 0 W/m² | - |
| 1777493702 | 12.78° C | 48% | 1026.1 hPa | 0 mm | - | 0 W/m² | - |
| 1777481102 | 17.78° C | 38% | 1025.5 hPa | 0 mm | - | 209 W/m² | - |
| 1777470302 | 19.44° C | 34% | 1026.1 hPa | 0 mm | - | 721 W/m² | - |
| 1777460402 | 17.22° C | 42% | 1026.9 hPa | 0 mm | - | 754 W/m² | - |
| 1777457702 | 16.67° C | 48% | 1027.2 hPa | 0 mm | - | 710 W/m² | - |
| 1777456802 | 16.11° C | 47% | 1027.5 hPa | 0 mm | - | 689 W/m² | - |
| 1777455002 | 15.56° C | 51% | 1027.6 hPa | 0 mm | - | 643 W/m² | - |
| 1777450502 | 12.78° C | 64% | 1027.7 hPa | 0 mm | - | 480 W/m² | - |
| 1777447802 | 11.11° C | 70% | 1028 hPa | 0 mm | - | 366 W/m² | - |
| 1777440623 | 5.56° C | 81% | 1027.7 hPa | 0 mm | - | 47 W/m² | - |
| 1777438802 | 5.56° C | 80% | 1027.7 hPa | 0 mm | - | 11 W/m² | - |
| 1777424423 | 6.67° C | 74% | 1028.7 hPa | 0 mm | - | 0 W/m² | - |
| 1777423502 | 6.67° C | 74% | 1028.8 hPa | 0 mm | - | 0 W/m² | - |
| 1777421703 | 6.67° C | 75% | 1028.9 hPa | 0 mm | - | 0 W/m² | - |
| 1777410923 | 10° C | 70% | 1028.9 hPa | 0 mm | - | 0 W/m² | - |
| 1777393802 | 15.56° C | 62% | 1027.4 hPa | 0 mm | - | 366 W/m² | - |
* Rain latest hour (hover to see other rain measurements)
** Current wind speed in m/s (hover to see current wind gust speed)